LIPX 200020Z 07002KT CAVOK 17/07 Q1026 LIPX 192350Z 06003KT CAVOK 17/07 Q1026 LIPX 192320Z 07003KT CAVOK 18/07 Q1026 LIPX 192250Z 09004KT CAVOK 18/07 Q1026 LIPX 192220Z 09004KT CAVOK 18/07 Q1026 LIPX 192150Z 09004KT CAVOK 19/06 Q1026 LIPX 192120Z 09003KT CAVOK 19/06 Q1026 LIPX 192050Z 08005KT CAVOK 20/06 Q1026 LIPX 192020Z 09005KT CAVOK 21/07 Q1026 LIPX 191950Z 09004KT CAVOK 21/08 Q1026 LIPX 191920Z 13006KT CAVOK 22/10 Q1025 LIPX 191850Z 10003KT CAVOK 24/12 Q1025 LIPX 191820Z 11003KT CAVOK 24/12 Q1025 LIPX 191750Z 12004KT CAVOK 25/12 Q1024 LIPX 191720Z 13005KT CAVOK 26/13 Q1024 LIPX 191650Z 15003KT 120V190 CAVOK 27/11 Q1024 LIPX 191620Z 16004KT 110V220 CAVOK 27/11 Q1024 LIPX 191550Z 15004KT 080V210 CAVOK 27/10 Q1024 LIPX 191520Z 12003KT 080V180 CAVOK 27/11 Q1025 LIPX 191450Z VRB03KT CAVOK 28/12 Q1025 LIPX 191420Z VRB04KT CAVOK 28/11 Q1025 LIPX 191350Z 15005KT 080V220 CAVOK 27/11 Q1025 LIPX 191320Z 15005KT 090V200 CAVOK 27/12 Q1026 LIPX 191250Z 11005KT 070V160 9999 FEW040 27/12 Q1026 LIPX 191220Z VRB03KT CAVOK 26/12 Q1026 LIPX 191150Z VRB04KT CAVOK 27/11 Q1026 LIPX 191120Z 13004KT 040V180 CAVOK 26/12 Q1026 LIPX 191050Z 13006KT 080V200 CAVOK 25/12 Q1027 LIPX 191020Z VRB04KT CAVOK 25/10 Q1027 LIPX 190950Z 15004KT 070V210 CAVOK 25/09 Q1027 LIPX 190920Z 16004KT 120V220 CAVOK 24/08 Q1027 LIPX 190850Z VRB04KT CAVOK 24/09 Q1027 LIPX 190820Z 13004KT 050V190 CAVOK 23/07 Q1027 LIPX 190750Z 12004KT 060V170 CAVOK 23/08 Q1027 LIPX 190720Z 14004KT 090V160 CAVOK 23/07 Q1027 LIPX 190650Z VRB03KT CAVOK 22/08 Q1027 LIPX 190620Z 14003KT 110V170 CAVOK 21/11 Q1027 LIPX 190550Z 14003KT CAVOK 20/12 Q1027 LIPX 190520Z 21003KT 9999 FEW090 19/12 Q1027 LIPX 190450Z AUTO 23003KT 9999 OVC083/// 19/11 Q1027 LIPX 190420Z AUTO 15002KT 9999 OVC082/// 19/11 Q1026 LIPX 190350Z AUTO VRB01KT 9999 BKN083/// 18/10 Q1026 LIPX 190320Z AUTO VRB01KT 9999 BKN083/// BKN098/// BKN120/// 18/10 Q1026 LIPX 190250Z AUTO 14002KT 9999 FEW083/// SCT120/// BKN150/// 18/09 Q1026 LIPX 190220Z AUTO 07003KT 9999 FEW088/// BKN110/// 19/10 Q1026 LIPX 190150Z AUTO 09003KT 9999 BKN089/// 19/09 Q1026 LIPX 190120Z AUTO VRB02KT 9999 SCT093/// BKN110/// BKN150/// 19/10 Q1026 LIPX 190050Z AUTO 07003KT 9999 FEW074/// BKN092/// BKN150/// 19/10 Q1026 LIPX 190020Z AUTO 08002KT 9999 SCT075/// BKN095/// 20/10 Q1026 LIPX 182350Z AUTO 07003KT 9999 FEW081/// BKN100/// 20/10 Q1026 LIPX 182320Z AUTO 08004KT 9999 BKN080/// 20/10 Q1026 LIPX 182250Z AUTO 07003KT 040V100 9999 BKN110/// 20/11 Q1026 LIPX 182220Z AUTO 08003KT 9999 BKN100/// 20/11 Q1026 LIPX 182150Z AUTO 09004KT 9999 FEW052/// BKN100/// 21/11 Q1025 LIPX 182120Z AUTO 08005KT 9999 FEW083/// BKN100/// 21/11 Q1025 LIPX 182050Z 10005KT CAVOK 21/11 Q1025 LIPX 182020Z 11005KT CAVOK 22/11 Q1024 LIPX 181950Z 11006KT CAVOK 22/11 Q1024 LIPX 181920Z 13007KT 090V150 CAVOK 23/11 Q1023 LIPX 181850Z 12005KT CAVOK 24/12 Q1023 LIPX 181820Z 12006KT CAVOK 25/12 Q1022 LIPX 181750Z 14006KT CAVOK 25/12 Q1022 LIPX 181720Z 13007KT 100V160 9999 FEW070 25/13 Q1022 LIPX 181650Z 13007KT 100V170 9999 FEW060 26/13 Q1022 LIPX 181620Z 13008KT 100V180 9999 FEW060 27/12 Q1022 LIPX 181550Z 13009KT 100V170 9999 FEW050 27/13 Q1022 LIPX 181520Z 14008KT 110V190 9999 FEW055 27/14 Q1021 LIPX 181450Z 11007KT 070V190 9999 SCT055 26/14 Q1022 LIPX 181420Z 12007KT 070V170 9999 SCT050 27/15 Q1021 LIPX 181350Z 11008KT 060V150 9999 SCT045 27/16 Q1022 LIPX 181320Z 11009KT 070V140 9999 SCT040 27/15 Q1022 LIPX 181250Z AUTO 10007KT 050V150 9999 FEW045/// 27/15 Q1022

METAR Messwerte "VILLAFRANCA(CV/M" LIPX

Zurück zur Übersicht

Ortsname
Ländercode / m ü. NN
Zeit Temperatur Taupunkt Rel.
Luftfeuchte
Luftdruck:
Altimeter
NN
Station
Wind in Beaufort
(Knoten)
Sichtweite
(Meter)
Wolken
(Meter über Grund)
Wettererscheinung
VILLAFRANCA(CV/M
IT 67
Fr 20.05. 02:2017752 %1026
1026
1018
ONO 1 (2)>= 10000Nicht signifikant 
VILLAFRANCA(CV/M
IT 67
Fr 20.05. 01:5017752 %1026
1026
1018
ONO 2 (3)>= 10000Nicht signifikant 
VILLAFRANCA(CV/M
IT 67
Fr 20.05. 01:2018749 %1026
1026
1018
ONO 2 (3)>= 10000Nicht signifikant 
VILLAFRANCA(CV/M
IT 67
Fr 20.05. 00:5018749 %1026
1026
1018
O 2 (4)>= 10000Nicht signifikant 
VILLAFRANCA(CV/M
IT 67
Fr 20.05. 00:2018749 %1026
1026
1018
O 2 (4)>= 10000Nicht signifikant 
VILLAFRANCA(CV/M
IT 67
Do 19.05. 23:5019643 %1026
1026
1018
O 2 (4)>= 10000Nicht signifikant 
VILLAFRANCA(CV/M
IT 67
Do 19.05. 23:2019643 %1026
1026
1018
O 2 (3)>= 10000Nicht signifikant 
VILLAFRANCA(CV/M
IT 67
Do 19.05. 22:5020640 %1026
1026
1018
O 2 (5)>= 10000Nicht signifikant 
VILLAFRANCA(CV/M
IT 67
Do 19.05. 22:2021740 %1026
1026
1018
O 2 (5)>= 10000Nicht signifikant 
VILLAFRANCA(CV/M
IT 67
Do 19.05. 21:5021843 %1026
1026
1018
O 2 (4)>= 10000Nicht signifikant 
VILLAFRANCA(CV/M
IT 67
Do 19.05. 21:20221046 %1025
1025
1017
SO 2 (6)>= 10000Nicht signifikant 
VILLAFRANCA(CV/M
IT 67
Do 19.05. 20:50241247 %1025
1025
1017
O 2 (3)>= 10000Nicht signifikant 
VILLAFRANCA(CV/M
IT 67
Do 19.05. 20:20241247 %1025
1025
1017
OSO 2 (3)>= 10000Nicht signifikant 
VILLAFRANCA(CV/M
IT 67
Do 19.05. 19:50251244 %1024
1024
1016
OSO 2 (4)>= 10000Nicht signifikant 
VILLAFRANCA(CV/M
IT 67
Do 19.05. 19:20261345 %1024
1024
1016
SO 2 (5)>= 10000Nicht signifikant 
VILLAFRANCA(CV/M
IT 67
Do 19.05. 18:50271137 %1024
1024
1016
SSO 2 (3)
OSO - S
>= 10000Nicht signifikant 
VILLAFRANCA(CV/M
IT 67
Do 19.05. 18:20271137 %1024
1024
1016
SSO 2 (4)
OSO - SW
>= 10000Nicht signifikant 
VILLAFRANCA(CV/M
IT 67
Do 19.05. 17:50271034 %1024
1024
1016
SSO 2 (4)
O - SSW
>= 10000Nicht signifikant 
VILLAFRANCA(CV/M
IT 67
Do 19.05. 17:20271137 %1025
1025
1017
OSO 2 (3)
O - S
>= 10000Nicht signifikant 
VILLAFRANCA(CV/M
IT 67
Do 19.05. 16:50281237 %1025
1025
1017
Uml 2 (3)>= 10000Nicht signifikant 
VILLAFRANCA(CV/M
IT 67
Do 19.05. 16:20281135 %1025
1025
1017
Uml 2 (4)>= 10000Nicht signifikant 
VILLAFRANCA(CV/M
IT 67
Do 19.05. 15:50271137 %1025
1025
1017
SSO 2 (5)
O - SW
>= 10000Nicht signifikant 
VILLAFRANCA(CV/M
IT 67
Do 19.05. 15:20271239 %1026
1026
1018
SSO 2 (5)
O - SSW
>= 10000Nicht signifikant 
VILLAFRANCA(CV/M
IT 67
Do 19.05. 14:50271239 %1026
1026
1018
OSO 2 (5)
ONO - SSO
>= 10000Leicht bewölkt (1200) 
VILLAFRANCA(CV/M
IT 67
Do 19.05. 14:20261242 %1026
1026
1018
Uml 2 (3)>= 10000Nicht signifikant 
VILLAFRANCA(CV/M
IT 67
Do 19.05. 13:50271137 %1026
1026
1018
Uml 2 (4)>= 10000Nicht signifikant 
VILLAFRANCA(CV/M
IT 67
Do 19.05. 13:20261242 %1026
1026
1018
SO 2 (4)
NO - S
>= 10000Nicht signifikant 
VILLAFRANCA(CV/M
IT 67
Do 19.05. 12:50251244 %1027
1027
1019
SO 2 (6)
O - SSW
>= 10000Nicht signifikant 
VILLAFRANCA(CV/M
IT 67
Do 19.05. 12:20251039 %1027
1027
1019
Uml 2 (4)>= 10000Nicht signifikant 
VILLAFRANCA(CV/M
IT 67
Do 19.05. 11:5025936 %1027
1027
1019
SSO 2 (4)
ONO - SSW
>= 10000Nicht signifikant 
VILLAFRANCA(CV/M
IT 67
Do 19.05. 11:2024836 %1027
1027
1019
SSO 2 (4)
OSO - SW
>= 10000Nicht signifikant 
VILLAFRANCA(CV/M
IT 67
Do 19.05. 10:5024938 %1027
1027
1019
Uml 2 (4)>= 10000Nicht signifikant 
VILLAFRANCA(CV/M
IT 67
Do 19.05. 10:2023736 %1027
1027
1019
SO 2 (4)
NO - S
>= 10000Nicht signifikant 
VILLAFRANCA(CV/M
IT 67
Do 19.05. 09:5023838 %1027
1027
1019
OSO 2 (4)
ONO - S
>= 10000Nicht signifikant 
VILLAFRANCA(CV/M
IT 67
Do 19.05. 09:2023736 %1027
1027
1019
SO 2 (4)
O - SSO
>= 10000Nicht signifikant 
VILLAFRANCA(CV/M
IT 67
Do 19.05. 08:5022841 %1027
1027
1019
Uml 2 (3)>= 10000Nicht signifikant 
VILLAFRANCA(CV/M
IT 67
Do 19.05. 08:20211153 %1027
1027
1019
SO 2 (3)
OSO - S
>= 10000Nicht signifikant 
VILLAFRANCA(CV/M
IT 67
Do 19.05. 07:50201260 %1027
1027
1019
SO 2 (3)>= 10000Nicht signifikant 
VILLAFRANCA(CV/M
IT 67
Do 19.05. 07:20191264 %1027
1027
1019
SSW 2 (3)>= 10000Leicht bewölkt (2700) 
VILLAFRANCA(CV/M
IT 67
Do 19.05. 06:50191160 %1027
1027
1019
SW 2 (3)>= 10000Bedeckt (2500) 
VILLAFRANCA(CV/M
IT 67
Do 19.05. 06:20191160 %1026
1026
1018
SSO 1 (2)>= 10000Bedeckt (2500) 
VILLAFRANCA(CV/M
IT 67
Do 19.05. 05:50181059 %1026
1026
1018
Uml 1 (1)>= 10000Stark bewölkt (2500) 
VILLAFRANCA(CV/M
IT 67
Do 19.05. 05:20181059 %1026
1026
1018
Uml 1 (1)>= 10000Stark bewölkt (3700)
Stark bewölkt (3000)
Stark bewölkt (2500)
 
VILLAFRANCA(CV/M
IT 67
Do 19.05. 04:5018956 %1026
1026
1018
SO 1 (2)>= 10000Stark bewölkt (4600)
Wolkig (3700)
Leicht bewölkt (2500)
 
VILLAFRANCA(CV/M
IT 67
Do 19.05. 04:20191056 %1026
1026
1018
ONO 2 (3)>= 10000Stark bewölkt (3400)
Leicht bewölkt (2700)
 
VILLAFRANCA(CV/M
IT 67
Do 19.05. 03:5019952 %1026
1026
1018
O 2 (3)>= 10000Stark bewölkt (2700) 
VILLAFRANCA(CV/M
IT 67
Do 19.05. 03:20191056 %1026
1026
1018
Uml 1 (2)>= 10000Stark bewölkt (4600)
Stark bewölkt (3400)
Wolkig (2800)
 
VILLAFRANCA(CV/M
IT 67
Do 19.05. 02:50191056 %1026
1026
1018
ONO 2 (3)>= 10000Stark bewölkt (4600)
Stark bewölkt (2800)
Leicht bewölkt (2300)
 
VILLAFRANCA(CV/M
IT 67
Do 19.05. 02:20201053 %1026
1026
1018
O 1 (2)>= 10000Stark bewölkt (2900)
Wolkig (2300)
 
VILLAFRANCA(CV/M
IT 67
Do 19.05. 01:50201053 %1026
1026
1018
ONO 2 (3)>= 10000Stark bewölkt (3000)
Leicht bewölkt (2500)
 
VILLAFRANCA(CV/M
IT 67
Do 19.05. 01:20201053 %1026
1026
1018
O 2 (4)>= 10000Stark bewölkt (2400) 
VILLAFRANCA(CV/M
IT 67
Do 19.05. 00:50201156 %1026
1026
1018
ONO 2 (3)
NO - O
>= 10000Stark bewölkt (3400) 
VILLAFRANCA(CV/M
IT 67
Do 19.05. 00:20201156 %1026
1026
1018
O 2 (3)>= 10000Stark bewölkt (3000) 
VILLAFRANCA(CV/M
IT 67
Mi 18.05. 23:50211153 %1025
1025
1017
O 2 (4)>= 10000Stark bewölkt (3000)
Leicht bewölkt (1600)
 
VILLAFRANCA(CV/M
IT 67
Mi 18.05. 23:20211153 %1025
1025
1017
O 2 (5)>= 10000Stark bewölkt (3000)
Leicht bewölkt (2500)
 
VILLAFRANCA(CV/M
IT 67
Mi 18.05. 22:50211153 %1025
1025
1017
O 2 (5)>= 10000Nicht signifikant 
VILLAFRANCA(CV/M
IT 67
Mi 18.05. 22:20221150 %1024
1024
1016
OSO 2 (5)>= 10000Nicht signifikant 
VILLAFRANCA(CV/M
IT 67
Mi 18.05. 21:50221150 %1024
1024
1016
OSO 2 (6)>= 10000Nicht signifikant 
VILLAFRANCA(CV/M
IT 67
Mi 18.05. 21:20231147 %1023
1023
1015
SO 3 (7)
O - SSO
>= 10000Nicht signifikant 
VILLAFRANCA(CV/M
IT 67
Mi 18.05. 20:50241247 %1023
1023
1015
OSO 2 (5)>= 10000Nicht signifikant 
VILLAFRANCA(CV/M
IT 67
Mi 18.05. 20:20251244 %1022
1022
1014
OSO 2 (6)>= 10000Nicht signifikant 
VILLAFRANCA(CV/M
IT 67
Mi 18.05. 19:50251244 %1022
1022
1014
SO 2 (6)>= 10000Nicht signifikant 
VILLAFRANCA(CV/M
IT 67
Mi 18.05. 19:20251347 %1022
1022
1014
SO 3 (7)
O - SSO
>= 10000Leicht bewölkt (2100) 
VILLAFRANCA(CV/M
IT 67
Mi 18.05. 18:50261345 %1022
1022
1014
SO 3 (7)
O - S
>= 10000Leicht bewölkt (1800) 
VILLAFRANCA(CV/M
IT 67
Mi 18.05. 18:20271239 %1022
1022
1014
SO 3 (8)
O - S
>= 10000Leicht bewölkt (1800) 
VILLAFRANCA(CV/M
IT 67
Mi 18.05. 17:50271342 %1022
1022
1014
SO 3 (9)
O - S
>= 10000Leicht bewölkt (1500) 
VILLAFRANCA(CV/M
IT 67
Mi 18.05. 17:20271445 %1021
1021
1013
SO 3 (8)
OSO - S
>= 10000Leicht bewölkt (1700) 
VILLAFRANCA(CV/M
IT 67
Mi 18.05. 16:50261448 %1022
1022
1014
OSO 3 (7)
ONO - S
>= 10000Wolkig (1700) 
VILLAFRANCA(CV/M
IT 67
Mi 18.05. 16:20271548 %1021
1021
1013
OSO 3 (7)
ONO - S
>= 10000Wolkig (1500) 
VILLAFRANCA(CV/M
IT 67
Mi 18.05. 15:50271651 %1022
1022
1014
OSO 3 (8)
ONO - SSO
>= 10000Wolkig (1400) 
VILLAFRANCA(CV/M
IT 67
Mi 18.05. 15:20271548 %1022
1022
1014
OSO 3 (9)
ONO - SO
>= 10000Wolkig (1200) 
VILLAFRANCA(CV/M
IT 67
Mi 18.05. 14:50271548 %1022
1022
1014
O 3 (7)
NO - SSO
>= 10000Leicht bewölkt (1400) 

Altimeter: Einstellung am Altimeter (Höhenmesser), die Höhe 0 muss auf diesen Luftdruckwert zeigen, damit das Gerät die Stationshöhe richtig anzeigt.

NN: Luftdruck reduziert auf "Normal Null", auf Meereshöhe, dieser von der Temperatur abhängige Wert wird bisweilen unkorrekt einfach als "Luftdruck" bezeichnet. Eigentlich nur eine fiktive Größe, die es erlaubt, Stationen auf unterschiedlichen Höhen miteinander zu vergleichen.

Station: Realer Luftdruck an der Station.